createdAt,value
2023-05-08T00:00:18.920Z,101422.78
2023-05-08T00:02:49.411Z,101419.16
2023-05-08T00:05:18.645Z,101429.44
2023-05-08T00:07:47.716Z,101428.75
2023-05-08T00:10:16.946Z,101421.44
2023-05-08T00:12:45.986Z,101401.25
2023-05-08T00:15:15.162Z,101420.63
2023-05-08T00:17:44.454Z,101401.50
2023-05-08T00:20:15.698Z,101403.78
2023-05-08T00:22:44.752Z,101429.25
2023-05-08T00:25:13.708Z,101416.28
2023-05-08T00:27:43.148Z,101425.06
2023-05-08T00:30:13.362Z,101432.78
2023-05-08T00:32:43.137Z,101435.72
2023-05-08T00:35:12.597Z,101436.44
2023-05-08T00:37:43.880Z,101419.84
2023-05-08T00:40:13.978Z,101432.84
2023-05-08T00:42:43.485Z,101422.50
2023-05-08T00:45:12.928Z,101417.66
2023-05-08T00:47:42.533Z,101434.44
2023-05-08T00:50:12.435Z,101418.94
2023-05-08T00:52:43.148Z,101435.59
2023-05-08T00:55:12.418Z,101410.84
2023-05-08T00:57:41.808Z,101442.66
2023-05-08T01:00:12.362Z,101434.66
2023-05-08T01:02:42.039Z,101443.34
2023-05-08T01:05:11.269Z,101435.69
2023-05-08T01:07:40.265Z,101426.50
2023-05-08T01:10:11.844Z,101440.53
2023-05-08T01:12:55.640Z,101443.84
2023-05-08T01:15:31.046Z,101435.50
2023-05-08T01:18:11.827Z,101442.59
2023-05-08T01:21:20.263Z,101444.31
2023-05-08T01:24:09.643Z,101446.34
2023-05-08T01:27:14.658Z,101401.69
2023-05-08T01:30:24.799Z,101455.75
2023-05-08T01:33:02.748Z,101451.84
2023-05-08T01:35:41.225Z,101447.88
2023-05-08T01:38:16.462Z,101409.34
2023-05-08T01:40:55.082Z,101458.28
2023-05-08T01:43:31.297Z,101467.66
2023-05-08T01:46:08.045Z,101398.06
2023-05-08T01:48:49.526Z,101449.06
2023-05-08T01:51:22.966Z,101449.53
2023-05-08T01:53:57.109Z,101447.78
2023-05-08T01:56:30.053Z,101448.44
2023-05-08T01:59:02.112Z,101469.94
2023-05-08T02:01:34.789Z,101461.09
2023-05-08T02:04:08.286Z,101468.91
2023-05-08T02:06:41.716Z,101435.59
2023-05-08T02:09:12.063Z,101434.56
2023-05-08T02:11:45.200Z,101470.59
2023-05-08T02:14:22.409Z,101466.09
2023-05-08T02:16:53.953Z,101455.13
2023-05-08T02:19:26.870Z,101470.31
2023-05-08T02:21:59.870Z,101478.44
2023-05-08T02:24:29.234Z,101483.91
2023-05-08T02:27:00.484Z,101476.56
2023-05-08T02:29:30.612Z,101498.88
2023-05-08T02:32:02.683Z,101481.00
2023-05-08T02:34:33.840Z,101494.72
2023-05-08T02:37:05.026Z,101495.00
2023-05-08T02:39:36.532Z,101498.75
2023-05-08T02:42:06.379Z,101485.28
2023-05-08T02:44:35.680Z,101502.28
2023-05-08T02:47:16.195Z,101494.38
2023-05-08T02:49:53.391Z,101497.13
2023-05-08T02:52:29.879Z,101502.59
2023-05-08T02:55:03.133Z,101504.56
2023-05-08T02:57:40.987Z,101486.25
2023-05-08T03:00:19.006Z,101506.59
2023-05-08T03:02:57.062Z,101528.66
2023-05-08T03:05:38.815Z,101520.84
2023-05-08T03:08:15.322Z,101520.22
2023-05-08T03:10:48.391Z,101518.78
2023-05-08T03:13:20.903Z,101524.13
2023-05-08T03:15:56.651Z,101533.19
2023-05-08T03:18:32.290Z,101534.13
2023-05-08T03:21:04.626Z,101541.63
2023-05-08T03:23:37.213Z,101533.88
2023-05-08T03:26:07.255Z,101514.44
2023-05-08T03:28:40.415Z,101541.34
2023-05-08T03:31:11.526Z,101549.13
2023-05-08T03:34:03.697Z,101552.34
2023-05-08T03:36:35.618Z,101531.53
2023-05-08T03:39:05.986Z,101530.22
2023-05-08T03:41:35.714Z,101565.41
2023-05-08T03:44:05.537Z,101551.94
2023-05-08T03:46:38.143Z,101562.50
2023-05-08T03:49:10.245Z,101561.16
2023-05-08T03:51:42.677Z,101539.06
2023-05-08T03:54:12.064Z,101570.50
2023-05-08T03:56:41.228Z,101576.38
2023-05-08T03:59:17.268Z,101573.22
2023-05-08T04:01:55.555Z,101564.38
2023-05-08T04:04:35.073Z,101551.88
2023-05-08T04:07:11.822Z,101570.41
2023-05-08T04:09:56.899Z,101574.38
2023-05-08T04:12:38.609Z,101587.03
2023-05-08T04:20:04.769Z,101549.16
2023-05-08T04:22:36.877Z,101587.28
2023-05-08T04:25:09.213Z,101561.94
2023-05-08T04:27:43.737Z,101586.81
2023-05-08T04:30:17.580Z,101550.53
2023-05-08T04:32:58.054Z,101597.09
2023-05-08T04:35:28.093Z,101598.19
2023-05-08T04:38:00.485Z,101582.34
2023-05-08T04:40:29.916Z,101587.81
2023-05-08T04:43:00.529Z,101590.66
2023-05-08T04:45:30.041Z,101594.50
2023-05-08T04:47:59.436Z,101567.50
2023-05-08T04:50:28.772Z,101581.78
2023-05-08T04:52:59.672Z,101475.31
2023-05-08T04:55:29.105Z,101597.31
2023-05-08T04:57:58.454Z,101601.56
2023-05-08T05:00:28.020Z,101579.06
2023-05-08T05:02:57.821Z,101598.34
2023-05-08T05:05:30.099Z,101589.47
2023-05-08T05:08:01.077Z,101596.94
2023-05-08T05:10:30.607Z,101581.47
2023-05-08T05:12:59.911Z,101616.03
2023-05-08T05:15:29.552Z,101585.69
2023-05-08T05:17:59.354Z,101557.03
2023-05-08T05:20:29.067Z,101601.63
2023-05-08T05:22:58.564Z,101602.13
2023-05-08T05:25:29.800Z,101575.47
2023-05-08T05:27:59.655Z,101601.72
2023-05-08T05:30:29.286Z,101568.25
2023-05-08T05:32:59.446Z,101609.94
2023-05-08T05:35:29.063Z,101597.19
2023-05-08T05:37:59.576Z,101579.78
2023-05-08T05:40:30.637Z,101520.06
2023-05-08T05:43:00.352Z,101616.63
2023-05-08T05:45:32.555Z,101617.81
2023-05-08T05:48:03.692Z,101613.59
2023-05-08T05:50:33.877Z,101621.91
2023-05-08T05:53:03.234Z,101603.41
2023-05-08T05:55:34.454Z,101615.66
2023-05-08T05:58:04.617Z,101606.03
2023-05-08T06:00:35.207Z,101614.75
2023-05-08T06:03:05.829Z,101590.06
2023-05-08T06:05:35.556Z,101614.94
2023-05-08T06:08:05.878Z,101612.31
2023-05-08T06:10:41.285Z,101604.03
2023-05-08T06:13:11.422Z,101605.91
2023-05-08T06:15:40.738Z,101616.63
2023-05-08T06:18:10.667Z,101601.63
2023-05-08T06:20:40.640Z,101615.94
2023-05-08T06:23:10.175Z,101577.88
2023-05-08T06:25:40.597Z,101614.66
2023-05-08T06:28:11.951Z,101590.81
2023-05-08T06:30:41.251Z,101592.53
2023-05-08T06:33:11.466Z,101593.03
2023-05-08T06:35:40.857Z,101612.66
2023-05-08T06:38:10.575Z,101611.50
2023-05-08T06:40:44.498Z,101592.13
2023-05-08T06:43:14.224Z,101588.38
2023-05-08T06:45:45.051Z,101594.28
2023-05-08T06:48:14.458Z,101596.47
2023-05-08T06:50:43.603Z,101607.28
2023-05-08T06:53:12.728Z,101598.28
2023-05-08T06:55:45.587Z,101616.66
2023-05-08T06:58:15.385Z,101610.78
2023-05-08T07:00:44.749Z,101599.22
2023-05-08T07:03:15.085Z,101599.34
2023-05-08T07:05:44.383Z,101614.19
2023-05-08T07:08:16.470Z,101602.19
2023-05-08T07:10:47.138Z,101615.69
2023-05-08T07:13:22.292Z,101611.81
2023-05-08T07:15:51.809Z,101590.06
2023-05-08T07:18:21.115Z,101590.72
2023-05-08T07:20:52.575Z,101598.75
2023-05-08T07:23:21.824Z,101593.84
2023-05-08T07:25:53.195Z,101606.91
2023-05-08T07:28:22.747Z,101598.03
2023-05-08T07:30:55.149Z,101611.28
2023-05-08T07:33:24.709Z,101565.91
2023-05-08T07:35:54.216Z,101607.69
2023-05-08T07:38:23.809Z,101597.03
2023-05-08T07:40:57.297Z,101593.63
2023-05-08T07:43:32.799Z,101589.44
2023-05-08T07:46:04.504Z,101607.16
2023-05-08T07:48:35.351Z,101548.16
2023-05-08T07:51:04.831Z,101590.22
2023-05-08T07:53:59.604Z,101594.91
2023-05-08T07:56:31.415Z,101613.16
2023-05-08T07:59:00.964Z,101611.25
2023-05-08T08:01:32.210Z,101602.88
2023-05-08T08:04:02.534Z,101593.63
2023-05-08T08:06:32.134Z,101590.22
2023-05-08T08:09:03.963Z,101598.53
2023-05-08T08:11:39.872Z,101589.56
2023-05-08T08:14:09.367Z,101590.09
2023-05-08T08:16:42.728Z,101582.38
2023-05-08T08:19:16.334Z,101602.09
2023-05-08T08:21:46.397Z,101595.16
2023-05-08T08:24:15.443Z,101577.78
2023-05-08T08:26:46.582Z,101598.22
2023-05-08T08:29:15.729Z,101595.31
2023-05-08T08:31:45.020Z,101613.16
2023-05-08T08:34:14.647Z,101594.03
2023-05-08T08:36:44.468Z,101603.78
2023-05-08T08:39:15.333Z,101580.03
2023-05-08T08:41:46.347Z,101601.63
2023-05-08T08:44:23.693Z,101591.47
2023-05-08T08:46:54.117Z,101578.53
2023-05-08T08:49:29.294Z,101561.63
2023-05-08T08:52:03.145Z,101577.56
2023-05-08T08:54:36.366Z,101566.88
2023-05-08T08:57:09.159Z,101583.41
2023-05-08T08:59:40.021Z,101567.41
2023-05-08T09:02:18.034Z,101573.16
2023-05-08T09:04:51.860Z,101573.09
2023-05-08T09:07:25.531Z,101559.59
2023-05-08T09:10:27.010Z,101552.34
2023-05-08T09:12:58.367Z,101580.72
2023-05-08T09:15:27.835Z,101560.81
2023-05-08T09:17:57.450Z,101577.25
2023-05-08T09:20:30.376Z,101572.59
2023-05-08T09:23:03.084Z,101573.38
2023-05-08T09:25:47.104Z,101578.34
2023-05-08T09:28:22.950Z,101556.84
2023-05-08T09:30:56.550Z,101575.97
2023-05-08T09:33:27.864Z,101577.22
2023-05-08T09:36:00.903Z,101559.81
2023-05-08T09:38:34.810Z,101556.88
2023-05-08T09:41:12.678Z,101552.13
2023-05-08T09:44:01.121Z,101567.41
2023-05-08T09:46:31.241Z,101565.97
2023-05-08T09:49:01.960Z,101565.97
2023-05-08T09:51:33.013Z,101558.47
2023-05-08T09:54:05.976Z,101568.44
2023-05-08T09:56:37.308Z,101566.03
2023-05-08T09:59:27.018Z,101565.31
2023-05-08T10:01:58.197Z,101569.38
2023-05-08T10:04:35.927Z,101569.84
2023-05-08T10:07:05.843Z,101567.50
2023-05-08T10:09:47.094Z,101539.53
2023-05-08T10:12:22.539Z,101562.03
2023-05-08T10:14:54.333Z,101534.06
2023-05-08T10:17:29.146Z,101560.84
2023-05-08T10:20:02.285Z,101565.44
2023-05-08T10:22:36.865Z,101536.91
2023-05-08T10:25:15.762Z,101550.75
2023-05-08T10:27:52.639Z,101551.53
2023-05-08T10:30:26.627Z,101559.25
2023-05-08T10:32:59.432Z,101556.00
2023-05-08T10:35:31.773Z,101557.91
2023-05-08T10:38:06.492Z,101551.88
2023-05-08T10:40:42.489Z,101549.25
2023-05-08T10:43:13.034Z,101540.09
2023-05-08T10:45:44.469Z,101550.31
2023-05-08T10:48:25.134Z,101556.75
2023-05-08T10:51:02.692Z,101552.59
2023-05-08T10:53:40.236Z,101555.34
2023-05-08T10:56:10.155Z,101555.66
2023-05-08T10:58:40.500Z,101548.59
2023-05-08T11:02:08.546Z,101557.03
2023-05-08T11:04:44.596Z,101569.59
2023-05-08T11:07:14.128Z,101569.56
2023-05-08T11:09:48.630Z,101557.66
2023-05-08T11:12:22.687Z,101547.00
2023-05-08T11:15:06.626Z,101551.69
2023-05-08T11:17:36.112Z,101573.66
2023-05-08T11:20:10.524Z,101570.34
2023-05-08T11:22:49.805Z,101566.00
2023-05-08T11:25:37.698Z,101559.13
2023-05-08T11:28:11.645Z,101564.09
2023-05-08T11:30:41.586Z,101561.63
2023-05-08T11:33:21.072Z,101560.41
2023-05-08T11:36:03.040Z,101565.56
2023-05-08T11:42:37.308Z,101556.72
2023-05-08T11:45:08.460Z,101541.56
2023-05-08T11:47:40.588Z,101559.47
2023-05-08T11:50:11.509Z,101547.47
2023-05-08T11:52:46.514Z,101531.28
2023-05-08T11:55:15.964Z,101529.75
2023-05-08T11:57:48.494Z,101549.81
2023-05-08T12:00:18.750Z,101558.06
2023-05-08T12:02:48.299Z,101542.44
2023-05-08T12:05:31.861Z,101550.84
2023-05-08T12:08:02.303Z,101554.19
2023-05-08T12:10:31.884Z,101543.91
2023-05-08T12:13:16.940Z,101519.47
2023-05-08T12:15:54.657Z,101495.28
2023-05-08T12:18:28.716Z,101533.50
2023-05-08T12:21:00.241Z,101517.09
2023-05-08T12:23:37.200Z,101535.16
2023-05-08T12:26:07.173Z,101521.31
2023-05-08T12:28:42.052Z,101532.38
2023-05-08T12:31:24.353Z,101516.91
2023-05-08T12:33:53.749Z,101536.84
2023-05-08T12:36:23.536Z,101554.19
2023-05-08T12:38:54.956Z,101541.13
2023-05-08T12:41:26.664Z,101526.09
2023-05-08T12:43:57.322Z,101472.44
2023-05-08T12:46:28.196Z,101502.59
2023-05-08T12:49:02.820Z,101505.03
2023-05-08T12:51:32.675Z,101542.69
2023-05-08T12:54:03.998Z,101532.09
2023-05-08T12:56:37.137Z,101545.97
2023-05-08T12:59:06.368Z,101525.44
2023-05-08T13:01:35.873Z,101506.97
2023-05-08T13:04:09.114Z,101470.63
2023-05-08T13:06:40.126Z,101522.41
2023-05-08T13:09:23.359Z,101508.88
2023-05-08T13:11:53.375Z,101524.72
2023-05-08T13:14:22.990Z,101533.59
2023-05-08T13:16:55.432Z,101500.19
2023-05-08T13:19:25.260Z,101503.13
2023-05-08T13:21:58.204Z,101528.56
2023-05-08T13:24:29.245Z,101532.22
2023-05-08T13:26:59.008Z,101531.50
2023-05-08T13:29:28.605Z,101538.66
2023-05-08T13:32:09.377Z,101544.00
2023-05-08T13:34:47.304Z,101343.50
2023-05-08T13:37:24.385Z,101532.97
2023-05-08T13:39:55.477Z,101503.19
2023-05-08T13:42:25.401Z,101538.06
2023-05-08T13:44:54.699Z,101538.81
2023-05-08T13:47:24.590Z,101520.19
2023-05-08T13:49:54.166Z,101539.78
2023-05-08T13:52:25.325Z,101542.53
2023-05-08T13:54:59.469Z,101509.44
2023-05-08T13:57:28.887Z,101532.72
2023-05-08T13:59:58.313Z,101518.06
2023-05-08T14:02:28.087Z,101505.00
2023-05-08T14:04:57.669Z,101517.09
2023-05-08T14:07:28.221Z,101515.06
2023-05-08T14:09:58.879Z,101537.28
2023-05-08T14:12:28.966Z,101537.53
2023-05-08T14:15:00.795Z,101539.78
2023-05-08T14:17:34.319Z,101542.19
2023-05-08T14:20:06.880Z,101534.38
2023-05-08T14:22:36.803Z,101468.44
2023-05-08T14:25:09.794Z,101536.44
2023-05-08T14:27:39.605Z,101534.53
2023-05-08T14:30:11.987Z,101516.00
2023-05-08T14:32:46.813Z,101503.03
2023-05-08T14:35:19.584Z,101535.03
2023-05-08T14:37:49.261Z,101545.56
2023-05-08T14:40:22.055Z,101529.44
2023-05-08T14:42:53.075Z,101533.69
2023-05-08T14:45:25.381Z,101533.22
2023-05-08T14:47:57.392Z,101535.69
2023-05-08T14:50:29.987Z,101445.47
2023-05-08T14:53:27.724Z,101531.34
2023-05-08T14:56:08.014Z,101541.31
2023-05-08T14:58:37.418Z,101536.19
2023-05-08T15:01:12.883Z,101535.88
2023-05-08T15:03:43.099Z,101490.03
2023-05-08T15:06:53.284Z,101431.88
2023-05-08T15:09:36.296Z,101469.66
2023-05-08T15:12:22.507Z,101528.28
2023-05-08T15:17:58.650Z,101530.22
2023-05-08T15:24:36.199Z,101501.50
2023-05-08T15:27:20.417Z,101526.59
2023-05-08T15:33:11.730Z,101536.00
2023-05-08T15:35:44.153Z,101536.75
2023-05-08T15:38:13.673Z,101537.75
2023-05-08T15:40:45.316Z,101518.59
2023-05-08T15:43:23.935Z,101542.22
2023-05-08T15:45:55.897Z,101528.47
2023-05-08T15:48:28.900Z,101529.03
2023-05-08T15:51:00.404Z,101535.34
2023-05-08T15:53:30.693Z,101384.81
2023-05-08T15:56:01.202Z,101532.75
2023-05-08T15:58:32.552Z,101508.72
2023-05-08T16:01:08.851Z,101538.63
2023-05-08T16:03:42.735Z,101544.34
2023-05-08T16:06:12.550Z,101539.25
2023-05-08T16:08:44.058Z,101541.72
2023-05-08T16:11:14.036Z,101534.81
2023-05-08T16:13:43.779Z,101527.78
2023-05-08T16:16:15.152Z,101526.72
2023-05-08T16:18:47.045Z,101514.53
2023-05-08T16:21:17.028Z,101512.16
2023-05-08T16:23:46.646Z,101553.00
2023-05-08T16:26:23.057Z,101549.66
2023-05-08T16:28:54.194Z,101548.69
2023-05-08T16:31:28.147Z,101464.88
2023-05-08T16:33:58.931Z,101551.34
2023-05-08T16:36:31.829Z,101546.91
2023-05-08T16:39:02.540Z,101502.56
2023-05-08T16:41:35.955Z,101557.22
2023-05-08T16:44:07.918Z,101540.47
2023-05-08T16:46:40.949Z,101563.22
2023-05-08T16:49:12.515Z,101565.38
2023-05-08T16:51:44.529Z,101534.59
2023-05-08T16:54:14.498Z,101543.28
2023-05-08T16:56:48.534Z,101550.97
2023-05-08T16:59:20.429Z,101569.59
2023-05-08T17:01:51.447Z,101569.31
2023-05-08T17:04:21.965Z,101556.47
2023-05-08T17:06:54.202Z,101553.78
2023-05-08T17:09:25.413Z,101555.88
2023-05-08T17:11:54.745Z,101565.78
2023-05-08T17:14:25.145Z,101583.97
2023-05-08T17:16:56.915Z,101537.38
2023-05-08T17:19:27.363Z,101520.69
2023-05-08T17:21:58.954Z,101581.97
2023-05-08T17:24:30.921Z,101587.09
2023-05-08T17:27:00.831Z,101607.06
2023-05-08T17:29:33.811Z,101602.97
2023-05-08T17:32:05.218Z,101574.44
2023-05-08T17:34:37.183Z,101598.78
2023-05-08T17:37:07.838Z,101606.41
2023-05-08T17:39:38.644Z,101558.28
2023-05-08T17:42:07.870Z,101590.50
2023-05-08T17:44:37.384Z,101622.41
2023-05-08T17:47:09.263Z,101596.63
2023-05-08T17:49:38.755Z,101622.88
2023-05-08T17:52:10.301Z,101630.06
2023-05-08T17:54:39.438Z,101625.59
2023-05-08T17:57:18.076Z,101628.63
2023-05-08T17:59:49.629Z,101604.06
2023-05-08T18:02:21.114Z,101636.84
2023-05-08T18:04:50.502Z,101619.25
2023-05-08T18:07:20.238Z,101646.69
2023-05-08T18:09:52.216Z,101619.97
2023-05-08T18:12:21.771Z,101624.41
2023-05-08T18:14:54.091Z,101646.94
2023-05-08T18:17:25.034Z,101644.66
2023-05-08T18:19:58.772Z,101650.78
2023-05-08T18:22:29.682Z,101648.91
2023-05-08T18:25:00.729Z,101643.22
2023-05-08T18:27:33.583Z,101644.53
2023-05-08T18:30:03.654Z,101654.09
2023-05-08T18:32:38.570Z,101646.66
2023-05-08T18:35:09.053Z,101661.13
2023-05-08T18:37:38.995Z,101648.06
2023-05-08T18:40:10.158Z,101602.78
2023-05-08T18:42:40.722Z,101666.72
2023-05-08T18:45:12.130Z,101657.66
2023-05-08T18:47:42.835Z,101666.78
2023-05-08T18:50:12.538Z,101663.84
2023-05-08T18:52:42.271Z,101647.22
2023-05-08T18:55:11.989Z,101632.81
2023-05-08T18:57:45.864Z,101618.84
2023-05-08T19:00:17.626Z,101470.31
2023-05-08T19:02:48.809Z,101677.81
2023-05-08T19:05:19.023Z,101677.03
2023-05-08T19:07:48.353Z,101675.88
2023-05-08T19:10:21.167Z,101674.13
2023-05-08T19:12:51.075Z,101679.47
2023-05-08T19:15:20.619Z,101677.22
2023-05-08T19:17:52.930Z,101639.31
2023-05-08T19:20:22.614Z,101670.31
2023-05-08T19:22:51.875Z,101675.50
2023-05-08T19:25:21.229Z,101679.88
2023-05-08T19:27:50.944Z,101679.16
2023-05-08T19:30:22.854Z,101675.28
2023-05-08T19:32:54.206Z,101585.00
2023-05-08T19:35:28.951Z,101672.66
2023-05-08T19:38:16.348Z,101682.50
2023-05-08T19:40:55.362Z,101678.94
2023-05-08T19:43:26.801Z,101673.94
2023-05-08T19:45:57.005Z,101670.66
2023-05-08T19:48:35.412Z,101676.59
2023-05-08T19:51:10.972Z,101653.47
2023-05-08T19:53:40.959Z,101675.78
2023-05-08T19:56:10.370Z,101678.16
2023-05-08T19:58:39.822Z,101668.00
2023-05-08T20:01:08.916Z,101656.06
2023-05-08T20:03:39.512Z,101675.00
2023-05-08T20:06:09.152Z,101679.63
2023-05-08T20:08:38.721Z,101669.63
2023-05-08T20:11:11.793Z,101667.81
2023-05-08T20:13:41.401Z,101669.53
2023-05-08T20:16:10.823Z,101665.00
2023-05-08T20:18:41.871Z,101668.66
2023-05-08T20:21:11.244Z,101668.41
2023-05-08T20:23:47.120Z,101674.47
2023-05-08T20:26:19.103Z,101654.63
2023-05-08T20:28:49.183Z,101648.38
2023-05-08T20:31:18.582Z,101666.25
2023-05-08T20:33:54.369Z,101668.13
2023-05-08T20:36:25.505Z,101661.88
2023-05-08T20:38:54.983Z,101657.59
2023-05-08T20:41:24.278Z,101681.00
2023-05-08T20:43:54.203Z,101665.84
2023-05-08T20:46:32.338Z,101667.06
2023-05-08T20:49:04.158Z,101621.53
2023-05-08T20:51:33.947Z,101669.97
2023-05-08T20:54:03.173Z,101679.31
2023-05-08T20:56:32.412Z,101639.66
2023-05-08T20:59:03.047Z,101675.09
2023-05-08T21:01:32.545Z,101669.44
2023-05-08T21:04:03.578Z,101679.31
2023-05-08T21:06:32.815Z,101677.59
2023-05-08T21:09:06.492Z,101603.47
2023-05-08T21:11:36.305Z,101672.75
2023-05-08T21:14:05.647Z,101670.81
2023-05-08T21:16:38.373Z,101682.25
2023-05-08T21:19:13.143Z,101650.09
2023-05-08T21:21:45.840Z,101676.03
2023-05-08T21:24:15.658Z,101680.84
2023-05-08T21:26:45.452Z,101672.63
2023-05-08T21:29:15.104Z,101668.25
2023-05-08T21:31:44.246Z,101672.63
2023-05-08T21:34:15.584Z,101668.31
2023-05-08T21:36:44.707Z,101685.50
2023-05-08T21:39:14.925Z,101687.91
2023-05-08T21:41:44.579Z,101683.66
2023-05-08T21:44:15.452Z,101681.50
2023-05-08T21:46:45.304Z,101680.16
2023-05-08T21:49:15.840Z,101686.78
2023-05-08T21:51:46.240Z,101660.97
2023-05-08T21:54:17.827Z,101678.63
2023-05-08T21:56:46.894Z,101671.66
2023-05-08T21:59:16.055Z,101677.69
2023-05-08T22:01:48.454Z,101662.56
2023-05-08T22:04:19.348Z,101607.34
2023-05-08T22:06:48.582Z,101665.34
2023-05-08T22:09:17.972Z,101623.66
2023-05-08T22:11:47.289Z,101654.09
2023-05-08T22:14:16.646Z,101663.34
2023-05-08T22:16:46.362Z,101659.91
2023-05-08T22:19:15.941Z,101666.75
2023-05-08T22:21:47.257Z,101663.91
2023-05-08T22:24:16.917Z,101664.75
2023-05-08T22:26:46.050Z,101667.94
2023-05-08T22:29:16.678Z,101667.22
2023-05-08T22:31:47.442Z,101665.75
2023-05-08T22:34:17.773Z,101657.38
2023-05-08T22:36:48.404Z,101678.22
2023-05-08T22:39:17.536Z,101650.75
2023-05-08T22:41:47.500Z,101652.19
2023-05-08T22:44:16.770Z,101666.28
2023-05-08T22:46:46.138Z,101669.50
2023-05-08T22:49:16.260Z,101647.94
2023-05-08T22:51:45.864Z,101682.47
2023-05-08T22:54:16.304Z,101662.22
2023-05-08T22:56:45.786Z,101633.59
2023-05-08T22:59:14.738Z,101675.44
2023-05-08T23:01:44.066Z,101673.00
2023-05-08T23:04:15.742Z,101671.13
2023-05-08T23:06:45.463Z,101674.31
2023-05-08T23:09:16.173Z,101672.63
2023-05-08T23:11:45.371Z,101668.47
2023-05-08T23:14:14.584Z,101653.47
2023-05-08T23:16:46.294Z,101622.41
2023-05-08T23:19:15.347Z,101671.00
2023-05-08T23:21:44.530Z,101608.00
2023-05-08T23:24:13.541Z,101676.81
2023-05-08T23:26:44.623Z,101660.16
2023-05-08T23:29:13.955Z,101674.69
2023-05-08T23:31:43.295Z,101671.28
2023-05-08T23:34:12.514Z,101681.75
2023-05-08T23:36:42.288Z,101673.31
2023-05-08T23:39:11.520Z,101668.50
2023-05-08T23:41:41.044Z,101674.25
2023-05-08T23:44:11.716Z,101672.28
2023-05-08T23:46:41.085Z,101647.69
2023-05-08T23:49:10.407Z,101669.13
2023-05-08T23:51:39.647Z,101655.34
2023-05-08T23:54:09.106Z,101672.22
2023-05-08T23:56:38.180Z,101655.88
2023-05-08T23:59:07.805Z,101630.53
